Avondale, Kentucky
Current Conditions -  °F | °C
As of 10:53 AM on Monday 22 Dec 2014 (Local Time) from KPAH Reporting Station
Haze Haze  
Wind Chill: 45°   Ceiling: 1000
Heat Index: 49°   Visibility: 3mi
Dew Point: 47°   Wind: 8mph
Humidity: 93%   Direction: 140°SE
Pressure: 29.78"   Gusts: NA
Location:  37.0331°N, 88.716°W
Report Text: KPAH 221653Z 14007KT 3SM BR OVC010 09/08 A2978 RMK AO2 SLP086 T00940083
Loading
Personal Weather Stations






























Interactive Weather Map New forecast layout! Learn more

10-Day Weather Forecast

Advertisements
Track Severe Weather on mobile